Time;durP1;ratioP1;P1;durP2;ratioP2;P2;SDS_P1;SDS_P2;PMS_P1;PMS_P2;Temp;Humidity;BMP_temperature;BMP_pressure;BME280_temperature;BME280_humidity;BME280_pressure;Samples;Min_cycle;Max_cycle;Signal;HPM_P1;HPM_P2
2022/01/08 00:02:04;;;;;;;;;;;;;;;;;;5016848;28;20483;-76
2022/01/08 00:04:31;;;;;;;;;;;;;;;;;;5015637;28;19940;-77
2022/01/08 00:06:58;;;;;;;;;;;;;;;;;;5009153;28;19930;-77
2022/01/08 00:09:25;;;;;;;;;;;;;;;;;;5010787;28;19934;-76
2022/01/08 00:11:52;;;;;;;;;;;;;;;;;;5012865;28;19926;-76
2022/01/08 00:14:21;;;;;;;;;;;;;;;;;;5008893;28;19926;-77
2022/01/08 00:16:48;;;;;;;;;;;;;;;;;;5007859;28;20280;-77
2022/01/08 00:19:15;;;;;;;;;;;;;;;;;;5014083;28;19988;-78
2022/01/08 00:21:44;;;;;;;;;;;;;;;;;;5010429;28;19925;-78
2022/01/08 00:24:11;;;;;;;;;;;;;;;;;;5010139;28;20287;-78
2022/01/08 00:26:38;;;;;;;;;;;;;;;;;;5011736;28;20402;-78
2022/01/08 00:29:05;;;;;;;;;;;;;;;;;;5014838;28;20456;-78
2022/01/08 00:31:32;;;;;;;;;;;;;;;;;;5010923;28;19932;-75
2022/01/08 00:33:59;;;;;;;;;;;;;;;;;;5008724;28;20023;-75
2022/01/08 00:36:26;;;;;;;;;;;;;;;;;;5013289;28;19925;-76
2022/01/08 00:38:53;;;;;;;;;;;;;;;;;;5005337;28;19925;-77
2022/01/08 00:41:20;;;;;;;;;;;;;;;;;;5010421;28;19925;-76
2022/01/08 00:43:47;;;;;;;;;;;;;;;;;;5010298;28;20000;-76
2022/01/08 00:46:14;;;;;;;;;;;;;;;;;;5021113;28;20036;-76
2022/01/08 00:48:40;;;;;;;;;;;;;;;;;;5020748;28;19936;-75
2022/01/08 00:51:07;;;;;;;;;;;;;;;;;;5014119;28;20364;-75
2022/01/08 00:53:36;;;;;;;;;;;;;;;;;;5018502;28;19933;-75
2022/01/08 00:56:03;;;;;;;;;;;;;;;;;;5017946;28;19932;-75
2022/01/08 00:58:30;;;;;;;;;;;;;;;;;;5016984;28;19926;-76
2022/01/08 01:00:56;;;;;;;;;;;;;;;;;;5011384;28;19932;-76
2022/01/08 01:03:23;;;;;;;;;;;;;;;;;;5001086;28;20008;-76
2022/01/08 01:05:50;;;;;;;;;;;;;;;;;;5014487;28;19933;-76
2022/01/08 01:08:17;;;;;;;;;;;;;;;;;;5018219;28;20012;-77
2022/01/08 01:10:44;;;;;;;;;;;;;;;;;;5014772;28;19996;-77
2022/01/08 01:13:11;;;;;;;;;;;;;;;;;;5010914;28;20004;-77
2022/01/08 01:15:38;;;;;;;;;;;;;;;;;;5012399;28;20308;-77
2022/01/08 01:18:06;;;;;;;;;;;;;;;;;;5018843;28;19933;-78
2022/01/08 01:20:33;;;;;;;;;;;;;;;;;;5015308;28;19932;-77
2022/01/08 01:23:06;;;;;;;;;;;;;;;;;;5016811;28;19932;-77
2022/01/08 01:25:37;;;;;;;;;;;;;;;;;;5010353;28;19941;-78
2022/01/08 01:28:14;;;;;;;;;;;;;;;;;;5013307;28;19925;-78
2022/01/08 01:41:44;;;;;;;;;;;;;;;;;;5012123;28;20396;-76
2022/01/08 01:47:02;;;;;;;;;;;;;;;;;;5010670;28;19972;-75
2022/01/08 01:49:29;;;;;;;;;;;;;;;;;;5020724;28;19933;-76
2022/01/08 01:51:56;;;;;;;;;;;;;;;;;;5013559;28;19953;-76
2022/01/08 01:54:23;;;;;;;;;;;;;;;;;;5013084;28;19968;-77
2022/01/08 01:56:50;;;;;;;;;;;;;;;;;;5010506;28;20008;-76
2022/01/08 01:59:17;;;;;;;;;;;;;;;;;;5013170;28;20308;-76
2022/01/08 02:01:44;;;;;;;;;;;;;;;;;;5009405;28;19931;-76
2022/01/08 02:04:11;;;;;;;;;;;;;;;;;;5009156;28;19926;-77
2022/01/08 02:06:38;;;;;;;;;;;;;;;;;;5000989;28;21277;-76
2022/01/08 02:09:05;;;;;;;;;;;;;;;;;;5011263;28;19932;-77
2022/01/08 02:11:32;;;;;;;;;;;;;;;;;;5009857;28;20024;-76
2022/01/08 02:13:59;;;;;;;;;;;;;;;;;;5013043;28;19925;-77
2022/01/08 02:16:27;;;;;;;;;;;;;;;;;;5010117;28;19926;-75
2022/01/08 02:18:54;;;;;;;;;;;;;;;;;;5011325;28;19972;-76
2022/01/08 02:21:21;;;;;;;;;;;;;;;;;;5011158;28;19932;-76
2022/01/08 02:23:48;;;;;;;;;;;;;;;;;;5009762;28;19984;-76
2022/01/08 02:26:15;;;;;;;;;;;;;;;;;;5004998;28;19998;-74
2022/01/08 02:28:42;;;;;;;;;;;;;;;;;;5011312;28;19933;-76
2022/01/08 02:31:09;;;;;;;;;;;;;;;;;;5005471;28;19926;-75
2022/01/08 02:33:38;;;;;;;;;;;;;;;;;;5008487;28;19926;-76
2022/01/08 02:36:05;;;;;;;;;;;;;;;;;;5011492;28;19926;-75
2022/01/08 02:38:31;;;;;;;;;;;;;;;;;;5011224;28;20013;-76
2022/01/08 02:41:02;;;;;;;;;;;;;;;;;;5010215;28;19949;-76
2022/01/08 02:43:33;;;;;;;;;;;;;;;;;;5011785;28;20384;-76
2022/01/08 02:46:00;;;;;;;;;;;;;;;;;;5010662;28;19933;-76
2022/01/08 02:48:27;;;;;;;;;;;;;;;;;;5010976;28;19926;-76
2022/01/08 02:50:54;;;;;;;;;;;;;;;;;;5008852;28;19926;-76
2022/01/08 02:53:20;;;;;;;;;;;;;;;;;;5013831;28;19925;-77
2022/01/08 02:55:47;;;;;;;;;;;;;;;;;;5007007;28;19932;-76
2022/01/08 02:58:14;;;;;;;;;;;;;;;;;;5014542;28;19932;-75
2022/01/08 03:00:41;;;;;;;;;;;;;;;;;;5013676;28;19931;-75
2022/01/08 03:03:08;;;;;;;;;;;;;;;;;;5009095;28;19989;-76
2022/01/08 03:05:35;;;;;;;;;;;;;;;;;;5011345;28;19933;-76
2022/01/08 03:08:02;;;;;;;;;;;;;;;;;;5012133;28;20036;-76
2022/01/08 03:10:29;;;;;;;;;;;;;;;;;;5011036;28;19931;-76
2022/01/08 03:12:56;;;;;;;;;;;;;;;;;;5014708;28;19933;-75
2022/01/08 03:15:23;;;;;;;;;;;;;;;;;;5014357;28;20510;-76
2022/01/08 03:17:50;;;;;;;;;;;;;;;;;;5009261;28;19932;-76
2022/01/08 03:20:20;;;;;;;;;;;;;;;;;;5011463;28;19926;-75
2022/01/08 03:22:47;;;;;;;;;;;;;;;;;;5009027;28;19932;-76
2022/01/08 03:25:14;;;;;;;;;;;;;;;;;;5012650;28;19973;-76
2022/01/08 03:27:41;;;;;;;;;;;;;;;;;;5012247;28;19940;-75
2022/01/08 03:30:08;;;;;;;;;;;;;;;;;;5013116;28;19925;-75
2022/01/08 03:32:35;;;;;;;;;;;;;;;;;;5006508;28;20021;-76
2022/01/08 03:35:02;;;;;;;;;;;;;;;;;;5011361;28;19940;-75
2022/01/08 03:37:29;;;;;;;;;;;;;;;;;;5013108;28;19929;-75
2022/01/08 03:39:56;;;;;;;;;;;;;;;;;;5011251;28;19925;-76
2022/01/08 03:42:23;;;;;;;;;;;;;;;;;;5009522;28;19925;-76
2022/01/08 03:44:50;;;;;;;;;;;;;;;;;;5012453;28;19929;-76
2022/01/08 03:50:04;;;;;;;;;;;;;;;;;;4993311;28;19926;-77
2022/01/08 03:52:31;;;;;;;;;;;;;;;;;;5014516;28;19925;-77
2022/01/08 03:54:59;;;;;;;;;;;;;;;;;;5017432;28;19969;-77
2022/01/08 03:57:26;;;;;;;;;;;;;;;;;;5013654;28;19926;-77
2022/01/08 03:59:53;;;;;;;;;;;;;;;;;;5013841;28;20032;-78
2022/01/08 04:02:20;;;;;;;;;;;;;;;;;;5012527;28;20044;-78
2022/01/08 04:04:48;;;;;;;;;;;;;;;;;;5013765;28;20040;-78
2022/01/08 04:07:15;;;;;;;;;;;;;;;;;;5013577;28;20008;-77
2022/01/08 04:09:42;;;;;;;;;;;;;;;;;;5017427;28;20392;-78
2022/01/08 04:12:09;;;;;;;;;;;;;;;;;;5016937;28;20016;-77
2022/01/08 04:14:50;;;;;;;;;;;;;;;;;;5018097;28;20024;-78
2022/01/08 04:17:17;;;;;;;;;;;;;;;;;;5012230;28;19997;-78
2022/01/08 04:19:44;;;;;;;;;;;;;;;;;;5015716;28;19929;-78
2022/01/08 04:22:12;;;;;;;;;;;;;;;;;;5011174;28;20012;-78
2022/01/08 04:24:39;;;;;;;;;;;;;;;;;;5014795;28;20016;-79
2022/01/08 04:27:06;;;;;;;;;;;;;;;;;;5015516;28;20353;-78
2022/01/08 04:29:33;;;;;;;;;;;;;;;;;;5014200;28;20468;-78
2022/01/08 04:32:00;;;;;;;;;;;;;;;;;;5014374;28;19925;-78
2022/01/08 04:34:27;;;;;;;;;;;;;;;;;;5014881;28;19926;-78
2022/01/08 04:36:54;;;;;;;;;;;;;;;;;;5003745;28;20339;-79
2022/01/08 04:39:21;;;;;;;;;;;;;;;;;;5011467;28;19934;-77
2022/01/08 04:41:48;;;;;;;;;;;;;;;;;;5011205;28;19925;-77
2022/01/08 04:44:15;;;;;;;;;;;;;;;;;;5012188;28;19940;-77
2022/01/08 04:46:42;;;;;;;;;;;;;;;;;;5010209;28;19926;-76
2022/01/08 04:49:09;;;;;;;;;;;;;;;;;;5010974;28;19948;-76
2022/01/08 04:51:36;;;;;;;;;;;;;;;;;;5010215;28;19933;-76
2022/01/08 04:54:03;;;;;;;;;;;;;;;;;;5014203;28;19925;-77
2022/01/08 04:56:30;;;;;;;;;;;;;;;;;;5013373;28;19994;-77
2022/01/08 04:58:57;;;;;;;;;;;;;;;;;;5014377;28;19926;-76
2022/01/08 05:01:24;;;;;;;;;;;;;;;;;;5011871;28;20011;-76
2022/01/08 05:03:51;;;;;;;;;;;;;;;;;;5015066;28;19929;-76
2022/01/08 05:06:18;;;;;;;;;;;;;;;;;;5013780;28;19931;-76
2022/01/08 05:08:45;;;;;;;;;;;;;;;;;;5013329;28;19926;-77
2022/01/08 05:11:12;;;;;;;;;;;;;;;;;;5012065;28;19957;-77
2022/01/08 05:13:39;;;;;;;;;;;;;;;;;;5013450;28;19932;-76
2022/01/08 05:16:06;;;;;;;;;;;;;;;;;;5007157;28;19925;-77
2022/01/08 05:18:33;;;;;;;;;;;;;;;;;;5008936;28;20013;-77
2022/01/08 05:21:11;;;;;;;;;;;;;;;;;;5010548;28;19938;-77
2022/01/08 05:23:38;;;;;;;;;;;;;;;;;;5014257;28;20277;-77
2022/01/08 05:26:06;;;;;;;;;;;;;;;;;;5009942;28;20409;-77
2022/01/08 05:28:33;;;;;;;;;;;;;;;;;;5012195;28;20296;-77
2022/01/08 05:31:00;;;;;;;;;;;;;;;;;;5006391;28;19934;-77
2022/01/08 05:33:27;;;;;;;;;;;;;;;;;;5007681;28;20407;-77
2022/01/08 05:35:54;;;;;;;;;;;;;;;;;;5007799;28;19925;-77
2022/01/08 05:38:21;;;;;;;;;;;;;;;;;;5002947;28;19926;-76
2022/01/08 05:40:48;;;;;;;;;;;;;;;;;;5011764;28;19925;-76
2022/01/08 05:43:15;;;;;;;;;;;;;;;;;;5011913;28;20711;-76
2022/01/08 05:45:42;;;;;;;;;;;;;;;;;;5012373;28;19995;-76
2022/01/08 05:48:09;;;;;;;;;;;;;;;;;;5009567;28;19933;-77
2022/01/08 05:50:36;;;;;;;;;;;;;;;;;;5009310;28;20308;-76
2022/01/08 05:53:03;;;;;;;;;;;;;;;;;;5006466;28;19926;-77
2022/01/08 05:55:30;;;;;;;;;;;;;;;;;;5011248;28;19940;-77
2022/01/08 05:57:57;;;;;;;;;;;;;;;;;;5012328;28;19926;-77
2022/01/08 06:00:24;;;;;;;;;;;;;;;;;;5015155;28;19925;-77
2022/01/08 06:02:51;;;;;;;;;;;;;;;;;;5015082;28;19929;-78
2022/01/08 06:05:18;;;;;;;;;;;;;;;;;;5015012;28;19925;-78
2022/01/08 06:07:45;;;;;;;;;;;;;;;;;;5006172;28;20435;-78
2022/01/08 06:10:11;;;;;;;;;;;;;;;;;;5012029;28;20232;-77
2022/01/08 06:12:38;;;;;;;;;;;;;;;;;;5001769;28;19936;-77
2022/01/08 06:15:05;;;;;;;;;;;;;;;;;;5008080;28;19936;-77
2022/01/08 06:17:32;;;;;;;;;;;;;;;;;;5008129;28;19926;-78
2022/01/08 06:19:59;;;;;;;;;;;;;;;;;;5012630;28;20034;-76
2022/01/08 06:22:26;;;;;;;;;;;;;;;;;;5001911;28;19925;-76
2022/01/08 06:24:53;;;;;;;;;;;;;;;;;;5013066;28;19926;-77
2022/01/08 06:27:20;;;;;;;;;;;;;;;;;;5014240;28;20455;-77
2022/01/08 06:29:47;;;;;;;;;;;;;;;;;;5011241;28;19925;-77
2022/01/08 06:32:15;;;;;;;;;;;;;;;;;;5015391;28;19925;-77
2022/01/08 06:34:42;;;;;;;;;;;;;;;;;;5012911;28;19937;-78
2022/01/08 06:37:08;;;;;;;;;;;;;;;;;;5016437;28;19925;-77
2022/01/08 06:39:35;;;;;;;;;;;;;;;;;;5017979;28;19929;-78
2022/01/08 06:42:02;;;;;;;;;;;;;;;;;;5016399;28;20072;-78
2022/01/08 06:44:29;;;;;;;;;;;;;;;;;;5007794;28;19926;-78
2022/01/08 06:46:56;;;;;;;;;;;;;;;;;;5015236;28;19933;-78
2022/01/08 06:49:23;;;;;;;;;;;;;;;;;;5011515;28;20420;-77
2022/01/08 06:51:51;;;;;;;;;;;;;;;;;;5014083;28;20020;-78
2022/01/08 06:54:18;;;;;;;;;;;;;;;;;;5015793;28;19948;-78
2022/01/08 06:56:45;;;;;;;;;;;;;;;;;;5011074;28;20296;-77
2022/01/08 06:59:12;;;;;;;;;;;;;;;;;;5016775;28;19975;-78
2022/01/08 07:01:38;;;;;;;;;;;;;;;;;;5013105;28;19926;-77
2022/01/08 07:04:05;;;;;;;;;;;;;;;;;;5013224;28;20299;-77
2022/01/08 07:06:32;;;;;;;;;;;;;;;;;;5011723;28;20372;-76
2022/01/08 07:08:59;;;;;;;;;;;;;;;;;;5016530;28;19925;-77
2022/01/08 07:11:27;;;;;;;;;;;;;;;;;;5011383;28;20452;-77
2022/01/08 07:13:53;;;;;;;;;;;;;;;;;;4998416;28;19949;-75
2022/01/08 07:16:20;;;;;;;;;;;;;;;;;;5004131;28;19930;-76
2022/01/08 07:18:47;;;;;;;;;;;;;;;;;;5009524;28;19926;-75
2022/01/08 07:21:14;;;;;;;;;;;;;;;;;;5008461;28;19926;-75
2022/01/08 07:23:41;;;;;;;;;;;;;;;;;;5007163;28;19941;-75
2022/01/08 07:26:08;;;;;;;;;;;;;;;;;;5004914;28;19925;-77
2022/01/08 07:28:35;;;;;;;;;;;;;;;;;;5012050;28;19926;-76
2022/01/08 07:31:02;;;;;;;;;;;;;;;;;;5007472;28;19934;-76
2022/01/08 07:33:29;;;;;;;;;;;;;;;;;;5009467;28;19989;-73
2022/01/08 07:35:56;;;;;;;;;;;;;;;;;;5006657;28;20056;-75
2022/01/08 07:38:23;;;;;;;;;;;;;;;;;;5008080;28;19926;-75
2022/01/08 07:40:52;;;;;;;;;;;;;;;;;;5006634;28;19926;-74
2022/01/08 07:43:19;;;;;;;;;;;;;;;;;;5009787;28;19925;-75
2022/01/08 07:45:46;;;;;;;;;;;;;;;;;;5007032;28;19932;-74
2022/01/08 07:48:13;;;;;;;;;;;;;;;;;;5012323;28;19965;-74
2022/01/08 07:50:40;;;;;;;;;;;;;;;;;;5003324;28;19933;-74
2022/01/08 07:53:07;;;;;;;;;;;;;;;;;;5004702;28;19960;-73
2022/01/08 07:55:34;;;;;;;;;;;;;;;;;;5003809;28;19932;-74
2022/01/08 07:58:01;;;;;;;;;;;;;;;;;;5006008;28;20016;-74
2022/01/08 08:00:28;;;;;;;;;;;;;;;;;;5005254;28;19937;-75
2022/01/08 08:02:54;;;;;;;;;;;;;;;;;;5005198;28;20388;-74
2022/01/08 08:05:21;;;;;;;;;;;;;;;;;;5005223;28;19936;-75
2022/01/08 08:07:48;;;;;;;;;;;;;;;;;;5007577;28;19926;-75
2022/01/08 08:10:17;;;;;;;;;;;;;;;;;;5000880;28;19999;-73
2022/01/08 08:12:44;;;;;;;;;;;;;;;;;;5006021;28;20446;-74
2022/01/08 08:15:12;;;;;;;;;;;;;;;;;;5005005;28;19925;-72
2022/01/08 08:17:39;;;;;;;;;;;;;;;;;;4998747;28;19934;-72
2022/01/08 08:20:06;;;;;;;;;;;;;;;;;;5001348;28;19933;-72
2022/01/08 08:22:33;;;;;;;;;;;;;;;;;;5001247;28;19934;-72
2022/01/08 08:25:00;;;;;;;;;;;;;;;;;;5003446;28;19935;-72
2022/01/08 08:27:29;;;;;;;;;;;;;;;;;;5005173;28;19933;-73
2022/01/08 08:29:56;;;;;;;;;;;;;;;;;;5009552;28;20033;-74
2022/01/08 08:32:23;;;;;;;;;;;;;;;;;;5008841;28;19960;-72
2022/01/08 08:34:50;;;;;;;;;;;;;;;;;;5007418;28;19930;-75
2022/01/08 08:37:17;;;;;;;;;;;;;;;;;;5005950;28;19961;-74
2022/01/08 08:39:44;;;;;;;;;;;;;;;;;;5009856;28;19932;-78
2022/01/08 08:42:11;;;;;;;;;;;;;;;;;;5015299;28;19957;-78
2022/01/08 08:44:38;;;;;;;;;;;;;;;;;;5010246;28;20019;-77
2022/01/08 08:47:06;;;;;;;;;;;;;;;;;;5010840;28;19925;-77
2022/01/08 08:49:33;;;;;;;;;;;;;;;;;;5010166;28;19949;-78
2022/01/08 08:52:00;;;;;;;;;;;;;;;;;;5010456;28;19965;-76
2022/01/08 08:54:27;;;;;;;;;;;;;;;;;;5010991;28;19937;-76
2022/01/08 08:56:54;;;;;;;;;;;;;;;;;;5014537;28;20020;-77
2022/01/08 08:59:23;;;;;;;;;;;;;;;;;;5020345;28;19967;-79
2022/01/08 09:01:50;;;;;;;;;;;;;;;;;;5021536;28;19925;-79
2022/01/08 09:04:20;;;;;;;;;;;;;;;;;;5016507;28;19993;-79
2022/01/08 09:06:46;;;;;;;;;;;;;;;;;;5021501;28;20689;-77
2022/01/08 09:09:13;;;;;;;;;;;;;;;;;;5013732;28;19925;-76
2022/01/08 09:11:40;;;;;;;;;;;;;;;;;;5008125;28;19972;-73
2022/01/08 09:14:07;;;;;;;;;;;;;;;;;;5011903;28;19925;-71
2022/01/08 09:16:34;;;;;;;;;;;;;;;;;;5004681;28;20016;-73
2022/01/08 09:19:01;;;;;;;;;;;;;;;;;;5007702;28;19926;-73
2022/01/08 09:21:28;;;;;;;;;;;;;;;;;;5011125;28;19925;-80
2022/01/08 09:23:55;;;;;;;;;;;;;;;;;;5013312;28;19980;-79
2022/01/08 09:26:22;;;;;;;;;;;;;;;;;;5010939;28;19925;-76
2022/01/08 09:28:49;;;;;;;;;;;;;;;;;;5013193;28;19976;-77
2022/01/08 09:31:18;;;;;;;;;;;;;;;;;;5014421;28;19933;-79
2022/01/08 09:33:45;;;;;;;;;;;;;;;;;;5010147;28;20016;-76
2022/01/08 09:36:12;;;;;;;;;;;;;;;;;;5014030;28;20048;-78
2022/01/08 09:38:39;;;;;;;;;;;;;;;;;;5012205;28;20008;-78
2022/01/08 09:41:06;;;;;;;;;;;;;;;;;;5009739;28;19925;-78
2022/01/08 09:43:33;;;;;;;;;;;;;;;;;;5011946;28;19940;-77
2022/01/08 09:46:00;;;;;;;;;;;;;;;;;;5013126;28;19925;-77
2022/01/08 09:48:27;;;;;;;;;;;;;;;;;;5018252;28;20309;-76
2022/01/08 09:50:54;;;;;;;;;;;;;;;;;;5008600;28;20326;-77
2022/01/08 09:53:21;;;;;;;;;;;;;;;;;;5012754;28;20549;-75
2022/01/08 09:55:48;;;;;;;;;;;;;;;;;;5008877;28;20004;-77
2022/01/08 09:58:15;;;;;;;;;;;;;;;;;;5014600;28;20012;-77
2022/01/08 10:00:42;;;;;;;;;;;;;;;;;;5010486;28;19926;-77
2022/01/08 10:03:09;;;;;;;;;;;;;;;;;;5011135;28;20012;-75
2022/01/08 10:05:36;;;;;;;;;;;;;;;;;;5010050;28;19933;-76
2022/01/08 10:08:03;;;;;;;;;;;;;;;;;;5012940;28;19974;-77
2022/01/08 10:10:30;;;;;;;;;;;;;;;;;;5011304;28;19929;-75
2022/01/08 10:12:58;;;;;;;;;;;;;;;;;;5014961;28;20392;-74
2022/01/08 10:18:10;;;;;;;;;;;;;;;;;;5007990;28;19928;-74
2022/01/08 10:20:37;;;;;;;;;;;;;;;;;;5010242;28;19932;-72
2022/01/08 10:23:04;;;;;;;;;;;;;;;;;;5008358;28;19925;-73
2022/01/08 10:25:31;;;;;;;;;;;;;;;;;;5009118;28;19926;-73
2022/01/08 10:27:58;;;;;;;;;;;;;;;;;;5008572;28;19925;-72
2022/01/08 10:30:25;;;;;;;;;;;;;;;;;;5004349;28;19926;-74
2022/01/08 10:32:52;;;;;;;;;;;;;;;;;;5011959;28;20036;-74
2022/01/08 10:35:18;;;;;;;;;;;;;;;;;;5010693;28;20005;-72
2022/01/08 10:37:45;;;;;;;;;;;;;;;;;;5009329;28;20004;-74
2022/01/08 10:40:12;;;;;;;;;;;;;;;;;;5009446;28;19925;-73
2022/01/08 10:42:39;;;;;;;;;;;;;;;;;;5011536;28;20024;-74
2022/01/08 10:45:06;;;;;;;;;;;;;;;;;;5008086;28;20300;-71
2022/01/08 10:47:33;;;;;;;;;;;;;;;;;;5011521;28;20020;-74
2022/01/08 10:50:02;;;;;;;;;;;;;;;;;;5008115;28;20397;-72
2022/01/08 10:52:29;;;;;;;;;;;;;;;;;;5009044;28;19932;-73
2022/01/08 10:54:56;;;;;;;;;;;;;;;;;;5007949;28;19936;-73
2022/01/08 10:57:23;;;;;;;;;;;;;;;;;;5010698;28;20031;-74
2022/01/08 10:59:50;;;;;;;;;;;;;;;;;;5006988;28;19975;-73
2022/01/08 11:02:17;;;;;;;;;;;;;;;;;;5007612;28;19925;-73
2022/01/08 11:04:45;;;;;;;;;;;;;;;;;;5008562;28;20406;-74
2022/01/08 11:07:12;;;;;;;;;;;;;;;;;;5008154;28;19979;-74
2022/01/08 11:09:39;;;;;;;;;;;;;;;;;;5008519;28;19929;-77
2022/01/08 11:12:06;;;;;;;;;;;;;;;;;;5011524;28;20389;-75
2022/01/08 11:14:59;;;;;;;;;;;;;;;;;;5010418;28;19932;-75
2022/01/08 11:17:26;;;;;;;;;;;;;;;;;;5008950;28;19925;-75
2022/01/08 11:19:52;;;;;;;;;;;;;;;;;;5007241;28;19926;-74
2022/01/08 11:22:19;;;;;;;;;;;;;;;;;;5005669;28;19968;-76
2022/01/08 11:24:46;;;;;;;;;;;;;;;;;;5012512;28;19932;-75
2022/01/08 11:27:13;;;;;;;;;;;;;;;;;;5011867;28;19925;-75
2022/01/08 11:29:40;;;;;;;;;;;;;;;;;;5007494;28;19926;-74
2022/01/08 11:32:07;;;;;;;;;;;;;;;;;;5011558;28;19952;-77
2022/01/08 11:34:34;;;;;;;;;;;;;;;;;;5012264;28;19932;-77
2022/01/08 11:37:01;;;;;;;;;;;;;;;;;;5004625;28;20029;-76
2022/01/08 11:39:28;;;;;;;;;;;;;;;;;;5008286;28;20015;-76
2022/01/08 11:41:55;;;;;;;;;;;;;;;;;;5006684;28;19957;-76
2022/01/08 11:44:22;;;;;;;;;;;;;;;;;;5010013;28;19925;-75
2022/01/08 11:46:49;;;;;;;;;;;;;;;;;;5006868;28;19945;-76
2022/01/08 11:49:16;;;;;;;;;;;;;;;;;;5007560;28;20376;-77
2022/01/08 11:51:43;;;;;;;;;;;;;;;;;;5001085;28;19941;-77
2022/01/08 11:54:10;;;;;;;;;;;;;;;;;;5006667;28;19932;-75
2022/01/08 11:56:38;;;;;;;;;;;;;;;;;;5004179;28;20020;-76
2022/01/08 11:59:05;;;;;;;;;;;;;;;;;;5002201;28;19985;-75
2022/01/08 12:01:32;;;;;;;;;;;;;;;;;;5009271;28;20077;-79
2022/01/08 12:04:00;;;;;;;;;;;;;;;;;;5013714;28;19961;-76
2022/01/08 12:06:29;;;;;;;;;;;;;;;;;;5013198;28;20020;-78
2022/01/08 12:08:57;;;;;;;;;;;;;;;;;;5022060;28;19965;-75
2022/01/08 12:11:24;;;;;;;;;;;;;;;;;;5015291;28;19925;-76
2022/01/08 12:13:52;;;;;;;;;;;;;;;;;;5015579;28;19976;-75
2022/01/08 12:16:19;;;;;;;;;;;;;;;;;;5015300;28;19968;-77
2022/01/08 12:18:46;;;;;;;;;;;;;;;;;;5014522;28;19965;-75
2022/01/08 12:21:13;;;;;;;;;;;;;;;;;;5015297;28;19948;-75
2022/01/08 12:23:40;;;;;;;;;;;;;;;;;;5003756;28;20033;-75
2022/01/08 12:26:09;;;;;;;;;;;;;;;;;;5003905;28;19932;-76
2022/01/08 12:28:36;;;;;;;;;;;;;;;;;;5005305;28;19987;-76
2022/01/08 12:31:03;;;;;;;;;;;;;;;;;;5008591;28;20027;-75
2022/01/08 12:33:32;;;;;;;;;;;;;;;;;;5006359;28;19944;-75
2022/01/08 12:36:00;;;;;;;;;;;;;;;;;;5003881;28;19934;-74
2022/01/08 12:38:27;;;;;;;;;;;;;;;;;;5005531;28;19929;-75
2022/01/08 12:40:55;;;;;;;;;;;;;;;;;;5007123;28;20409;-77
2022/01/08 12:43:22;;;;;;;;;;;;;;;;;;5009116;28;20019;-76
2022/01/08 12:45:50;;;;;;;;;;;;;;;;;;5006313;28;19932;-75
2022/01/08 12:48:17;;;;;;;;;;;;;;;;;;5010232;28;20716;-76
2022/01/08 12:50:44;;;;;;;;;;;;;;;;;;5009720;28;19929;-75
2022/01/08 12:53:11;;;;;;;;;;;;;;;;;;5007831;28;20004;-75
2022/01/08 12:55:38;;;;;;;;;;;;;;;;;;5007878;28;19926;-76
2022/01/08 12:58:05;;;;;;;;;;;;;;;;;;5010509;28;19926;-76
2022/01/08 13:00:32;;;;;;;;;;;;;;;;;;5011674;28;19925;-75
2022/01/08 13:02:59;;;;;;;;;;;;;;;;;;5011852;28;19949;-76
2022/01/08 13:05:26;;;;;;;;;;;;;;;;;;5016547;28;19933;-77
2022/01/08 13:07:53;;;;;;;;;;;;;;;;;;5010177;28;20088;-76
2022/01/08 13:10:20;;;;;;;;;;;;;;;;;;5008174;28;19933;-76
2022/01/08 13:12:47;;;;;;;;;;;;;;;;;;5010720;28;20348;-75
2022/01/08 13:15:14;;;;;;;;;;;;;;;;;;5013895;28;19965;-75
2022/01/08 13:17:41;;;;;;;;;;;;;;;;;;5011342;28;19930;-77
2022/01/08 13:20:08;;;;;;;;;;;;;;;;;;5010772;28;19937;-74
2022/01/08 13:22:35;;;;;;;;;;;;;;;;;;5017855;28;19925;-75
2022/01/08 13:25:02;;;;;;;;;;;;;;;;;;5008626;28;20408;-77
2022/01/08 13:27:29;;;;;;;;;;;;;;;;;;5012077;28;19989;-79
2022/01/08 13:29:56;;;;;;;;;;;;;;;;;;5014436;28;19937;-76
2022/01/08 13:32:23;;;;;;;;;;;;;;;;;;5008569;28;19945;-77
2022/01/08 13:34:50;;;;;;;;;;;;;;;;;;5008647;28;20550;-76
2022/01/08 13:37:17;;;;;;;;;;;;;;;;;;5009774;28;19961;-76
2022/01/08 13:39:44;;;;;;;;;;;;;;;;;;5011951;28;19929;-76
2022/01/08 13:42:12;;;;;;;;;;;;;;;;;;5011081;28;19933;-78
2022/01/08 13:44:39;;;;;;;;;;;;;;;;;;5015798;28;20291;-76
2022/01/08 13:47:06;;;;;;;;;;;;;;;;;;5017211;28;19925;-75
2022/01/08 13:49:36;;;;;;;;;;;;;;;;;;5013610;28;19932;-75
2022/01/08 13:52:04;;;;;;;;;;;;;;;;;;5015166;28;19934;-75
2022/01/08 13:54:31;;;;;;;;;;;;;;;;;;5010920;28;20023;-76
2022/01/08 13:56:58;;;;;;;;;;;;;;;;;;5005589;28;19932;-75
2022/01/08 13:59:27;;;;;;;;;;;;;;;;;;5009685;28;20020;-78
2022/01/08 14:01:58;;;;;;;;;;;;;;;;;;5009450;28;20007;-75
2022/01/08 14:04:25;;;;;;;;;;;;;;;;;;5011612;28;20012;-77
2022/01/08 14:06:52;;;;;;;;;;;;;;;;;;5010374;28;19933;-75
2022/01/08 14:09:19;;;;;;;;;;;;;;;;;;5010616;28;19977;-77
2022/01/08 14:11:46;;;;;;;;;;;;;;;;;;5009821;28;19926;-75
2022/01/08 14:14:17;;;;;;;;;;;;;;;;;;5010398;28;19998;-76
2022/01/08 14:16:44;;;;;;;;;;;;;;;;;;5008997;28;19936;-76
2022/01/08 14:19:11;;;;;;;;;;;;;;;;;;5010061;28;19933;-75
2022/01/08 14:21:38;;;;;;;;;;;;;;;;;;5008182;28;19940;-77
2022/01/08 14:24:05;;;;;;;;;;;;;;;;;;5007992;28;20381;-74
2022/01/08 14:26:33;;;;;;;;;;;;;;;;;;5009131;28;19940;-75
2022/01/08 14:29:03;;;;;;;;;;;;;;;;;;5009001;28;19945;-76
2022/01/08 14:31:30;;;;;;;;;;;;;;;;;;5005137;28;19925;-75
2022/01/08 14:33:57;;;;;;;;;;;;;;;;;;5005517;28;19929;-76
2022/01/08 14:36:24;;;;;;;;;;;;;;;;;;5007193;28;19925;-77
2022/01/08 14:38:52;;;;;;;;;;;;;;;;;;5005914;28;19935;-77
2022/01/08 14:41:19;;;;;;;;;;;;;;;;;;5006263;28;19937;-75
2022/01/08 14:43:46;;;;;;;;;;;;;;;;;;5007037;28;20025;-75
2022/01/08 14:46:13;;;;;;;;;;;;;;;;;;5003575;28;19933;-78
2022/01/08 14:48:43;;;;;;;;;;;;;;;;;;5010267;28;20266;-75
2022/01/08 14:51:10;;;;;;;;;;;;;;;;;;5009416;28;20287;-77
2022/01/08 14:53:37;;;;;;;;;;;;;;;;;;5023266;28;19925;-79
2022/01/08 14:56:07;;;;;;;;;;;;;;;;;;5021991;28;19961;-77
2022/01/08 14:58:36;;;;;;;;;;;;;;;;;;5024402;28;19916;-78
2022/01/08 15:01:04;;;;;;;;;;;;;;;;;;5017433;28;19932;-78
2022/01/08 15:03:30;;;;;;;;;;;;;;;;;;5021670;28;19933;-78
2022/01/08 15:05:57;;;;;;;;;;;;;;;;;;5016895;28;19959;-78
2022/01/08 15:08:25;;;;;;;;;;;;;;;;;;5013509;28;20976;-74
2022/01/08 15:10:52;;;;;;;;;;;;;;;;;;5008004;28;19926;-75
2022/01/08 15:13:21;;;;;;;;;;;;;;;;;;5011627;28;19991;-77
2022/01/08 15:15:48;;;;;;;;;;;;;;;;;;5006650;28;19925;-75
2022/01/08 15:18:15;;;;;;;;;;;;;;;;;;5008592;28;19931;-75
2022/01/08 15:20:42;;;;;;;;;;;;;;;;;;5010550;28;19929;-74
2022/01/08 15:23:09;;;;;;;;;;;;;;;;;;5012149;28;19925;-76
2022/01/08 15:25:36;;;;;;;;;;;;;;;;;;5009882;28;19926;-75
2022/01/08 15:28:03;;;;;;;;;;;;;;;;;;5013402;28;20008;-75
2022/01/08 15:30:30;;;;;;;;;;;;;;;;;;5013029;28;19933;-75
2022/01/08 15:32:57;;;;;;;;;;;;;;;;;;5011028;28;19925;-74
2022/01/08 15:35:24;;;;;;;;;;;;;;;;;;5008301;28;19929;-73
2022/01/08 15:37:52;;;;;;;;;;;;;;;;;;5003181;28;19940;-74
2022/01/08 15:40:19;;;;;;;;;;;;;;;;;;5009494;28;20256;-75
2022/01/08 15:42:47;;;;;;;;;;;;;;;;;;5005828;28;20339;-76
2022/01/08 15:45:14;;;;;;;;;;;;;;;;;;5009268;28;19932;-76
2022/01/08 15:47:41;;;;;;;;;;;;;;;;;;5009872;28;19926;-76
2022/01/08 15:50:08;;;;;;;;;;;;;;;;;;5005966;28;20380;-75
2022/01/08 15:52:35;;;;;;;;;;;;;;;;;;5012706;28;19932;-78
2022/01/08 15:55:02;;;;;;;;;;;;;;;;;;5008439;28;20012;-75
2022/01/08 15:57:29;;;;;;;;;;;;;;;;;;5009510;28;19988;-78
2022/01/08 15:59:56;;;;;;;;;;;;;;;;;;5008252;28;19929;-78
2022/01/08 16:02:23;;;;;;;;;;;;;;;;;;5014005;28;19929;-76
2022/01/08 16:04:50;;;;;;;;;;;;;;;;;;5010690;28;20312;-77
2022/01/08 16:07:18;;;;;;;;;;;;;;;;;;5006156;28;20433;-77
2022/01/08 16:09:44;;;;;;;;;;;;;;;;;;5009094;28;19932;-76
2022/01/08 16:12:11;;;;;;;;;;;;;;;;;;5005562;28;19936;-75
2022/01/08 16:14:38;;;;;;;;;;;;;;;;;;5010464;28;19926;-76
2022/01/08 16:17:05;;;;;;;;;;;;;;;;;;5012168;28;19937;-76
2022/01/08 16:19:32;;;;;;;;;;;;;;;;;;5009590;28;20012;-78
2022/01/08 16:21:59;;;;;;;;;;;;;;;;;;5009931;28;19933;-76
2022/01/08 16:24:26;;;;;;;;;;;;;;;;;;5006285;28;19932;-76
2022/01/08 16:26:53;;;;;;;;;;;;;;;;;;5001988;28;19940;-76
2022/01/08 16:29:20;;;;;;;;;;;;;;;;;;5012132;28;20400;-77
2022/01/08 16:31:47;;;;;;;;;;;;;;;;;;5012456;28;19930;-76
2022/01/08 16:34:14;;;;;;;;;;;;;;;;;;5003574;28;20297;-77
2022/01/08 16:36:41;;;;;;;;;;;;;;;;;;5012438;28;20299;-75
2022/01/08 16:39:14;;;;;;;;;;;;;;;;;;5006303;28;19926;-76
2022/01/08 16:41:41;;;;;;;;;;;;;;;;;;5009900;28;19981;-78
2022/01/08 16:44:08;;;;;;;;;;;;;;;;;;5012369;28;19925;-77
2022/01/08 16:46:35;;;;;;;;;;;;;;;;;;5001071;28;19933;-75
2022/01/08 16:49:02;;;;;;;;;;;;;;;;;;5004538;28;20012;-76
2022/01/08 16:51:29;;;;;;;;;;;;;;;;;;5008255;28;19925;-75
2022/01/08 16:53:56;;;;;;;;;;;;;;;;;;5007894;28;19930;-75
2022/01/08 16:56:23;;;;;;;;;;;;;;;;;;5013789;28;19935;-75
2022/01/08 16:58:50;;;;;;;;;;;;;;;;;;5011798;28;19931;-75
2022/01/08 17:01:17;;;;;;;;;;;;;;;;;;5013865;28;19969;-76
2022/01/08 17:03:44;;;;;;;;;;;;;;;;;;5011876;28;20051;-75
2022/01/08 17:06:13;;;;;;;;;;;;;;;;;;5013506;28;19933;-75